Time;durP1;ratioP1;P1;durP2;ratioP2;P2;SDS_P1;SDS_P2;PMS_P1;PMS_P2;Temp;Humidity;BMP_temperature;BMP_pressure;BME280_temperature;BME280_humidity;BME280_pressure;Samples;Min_cycle;Max_cycle;Signal;HPM_P1;HPM_P2
2023/01/06 00:01:02;;;;;;;;;;;9.80;99.90;;;;;;5074302;28;19921;-67
2023/01/06 00:03:28;;;;;;;;;;;9.80;99.90;;;;;;5074619;28;19923;-67
2023/01/06 00:05:58;;;;;;;;;;;9.80;99.90;;;;;;5074504;28;19916;-67
2023/01/06 00:08:23;;;;;;;;;;;9.80;99.90;;;;;;5074496;28;20003;-67
2023/01/06 00:10:48;;;;;;;;;;;9.80;99.90;;;;;;5073722;28;20016;-67
2023/01/06 00:13:14;;;;;;;;;;;9.80;99.90;;;;;;5074153;28;19909;-68
2023/01/06 00:15:39;;;;;;;;;;;9.80;99.90;;;;;;5074395;28;20047;-67
2023/01/06 00:18:05;;;;;;;;;;;9.80;99.90;;;;;;5074333;28;19909;-68
2023/01/06 00:20:30;;;;;;;;;;;9.80;99.90;;;;;;5074024;28;19909;-67
2023/01/06 00:22:56;;;;;;;;;;;9.80;99.90;;;;;;5073938;28;20484;-67
2023/01/06 00:25:22;;;;;;;;;;;9.80;99.90;;;;;;5073973;28;19909;-68
2023/01/06 00:27:47;;;;;;;;;;;9.80;99.90;;;;;;5073928;28;19913;-67
2023/01/06 00:30:13;;;;;;;;;;;9.80;99.90;;;;;;5074209;28;19959;-67
2023/01/06 00:32:38;;;;;;;;;;;9.80;99.90;;;;;;5074106;28;20179;-68
2023/01/06 00:35:04;;;;;;;;;;;9.80;99.90;;;;;;5073807;28;19931;-67
2023/01/06 00:37:29;;;;;;;;;;;9.80;99.90;;;;;;5073799;28;19909;-67
2023/01/06 00:39:55;;;;;;;;;;;9.90;99.90;;;;;;5073813;28;20323;-68
2023/01/06 00:42:21;;;;;;;;;;;9.90;99.90;;;;;;5073933;28;19927;-68
2023/01/06 00:44:47;;;;;;;;;;;9.80;99.90;;;;;;5074007;28;20362;-67
2023/01/06 00:47:13;;;;;;;;;;;9.80;99.90;;;;;;5073951;28;19916;-67
2023/01/06 00:49:38;;;;;;;;;;;9.80;99.90;;;;;;5073941;28;19916;-67
2023/01/06 00:52:04;;;;;;;;;;;9.90;99.90;;;;;;5073636;28;19908;-67
2023/01/06 00:54:30;;;;;;;;;;;9.80;99.90;;;;;;5073630;28;19915;-68
2023/01/06 00:56:55;;;;;;;;;;;9.80;99.90;;;;;;5073923;28;19909;-68
2023/01/06 00:59:21;;;;;;;;;;;9.80;99.90;;;;;;5073570;28;19962;-69
2023/01/06 01:01:48;;;;;;;;;;;9.90;99.90;;;;;;5073284;28;19924;-67
2023/01/06 01:04:14;;;;;;;;;;;9.90;99.90;;;;;;5073493;28;19909;-68
2023/01/06 01:06:41;;;;;;;;;;;9.90;99.90;;;;;;5073769;28;19962;-68
2023/01/06 01:09:06;;;;;;;;;;;9.90;99.90;;;;;;5073521;28;19908;-67
2023/01/06 01:14:18;;;;;;;;;;;10.00;99.90;;;;;;5073249;28;19908;-67
2023/01/06 01:16:44;;;;;;;;;;;10.10;99.90;;;;;;5073670;28;19912;-67
2023/01/06 01:19:10;;;;;;;;;;;10.10;99.90;;;;;;5073642;28;19962;-67
2023/01/06 01:21:36;;;;;;;;;;;10.10;99.90;;;;;;5073550;28;19919;-67
2023/01/06 01:24:01;;;;;;;;;;;10.10;99.90;;;;;;5076076;28;19909;-68
2023/01/06 01:26:27;;;;;;;;;;;10.10;99.90;;;;;;5077404;28;19966;-67
2023/01/06 01:28:52;;;;;;;;;;;10.20;99.90;;;;;;5077319;28;20491;-67
2023/01/06 01:31:19;;;;;;;;;;;10.30;99.90;;;;;;5077275;28;19908;-67
2023/01/06 01:33:45;;;;;;;;;;;10.30;99.90;;;;;;5077470;28;19912;-67
2023/01/06 01:36:12;;;;;;;;;;;10.30;99.90;;;;;;5077400;28;20417;-67
2023/01/06 01:38:37;;;;;;;;;;;10.40;99.90;;;;;;5077366;28;19913;-67
2023/01/06 01:41:03;;;;;;;;;;;10.30;99.90;;;;;;5077005;28;20309;-67
2023/01/06 01:43:48;;;;;;;;;;;10.30;99.90;;;;;;5077279;28;19948;-67
2023/01/06 01:46:16;;;;;;;;;;;10.30;99.90;;;;;;5076885;28;20362;-67
2023/01/06 01:48:42;;;;;;;;;;;10.30;99.90;;;;;;5077200;28;19909;-67
2023/01/06 01:51:10;;;;;;;;;;;10.30;99.90;;;;;;5076856;28;19909;-67
2023/01/06 01:53:39;;;;;;;;;;;10.30;99.90;;;;;;5077078;28;19961;-69
2023/01/06 01:56:07;;;;;;;;;;;10.30;99.90;;;;;;5058939;28;20389;-67
2023/01/06 01:58:35;;;;;;;;;;;10.30;99.90;;;;;;5076743;28;19908;-68
2023/01/06 02:01:00;;;;;;;;;;;10.30;99.90;;;;;;5076655;28;19948;-69
2023/01/06 02:03:26;;;;;;;;;;;10.40;99.90;;;;;;5076642;28;20333;-67
2023/01/06 02:05:54;;;;;;;;;;;10.40;99.90;;;;;;5076960;28;19909;-67
2023/01/06 02:08:30;;;;;;;;;;;10.40;99.90;;;;;;5076569;28;19909;-68
2023/01/06 02:10:56;;;;;;;;;;;10.40;99.90;;;;;;5076739;28;19908;-67
2023/01/06 02:13:22;;;;;;;;;;;10.40;99.90;;;;;;5076757;28;19909;-67
2023/01/06 02:15:48;;;;;;;;;;;10.40;99.90;;;;;;5076543;28;20396;-67
2023/01/06 02:18:34;;;;;;;;;;;10.40;99.90;;;;;;5076675;28;20296;-67
2023/01/06 02:21:08;;;;;;;;;;;10.40;99.90;;;;;;5076171;28;20378;-67
2023/01/06 02:23:45;;;;;;;;;;;10.40;99.90;;;;;;5076269;28;19913;-67
2023/01/06 02:26:25;;;;;;;;;;;10.40;99.90;;;;;;5076484;28;19952;-67
2023/01/06 02:29:10;;;;;;;;;;;10.40;99.90;;;;;;5076178;28;19908;-68
2023/01/06 02:31:55;;;;;;;;;;;10.40;99.90;;;;;;5076077;28;19916;-67
2023/01/06 02:34:38;;;;;;;;;;;10.40;99.90;;;;;;5075583;28;19934;-67
2023/01/06 02:37:07;;;;;;;;;;;10.40;99.90;;;;;;5076044;28;19959;-67
2023/01/06 02:39:53;;;;;;;;;;;10.40;99.90;;;;;;5076307;28;20293;-67
2023/01/06 02:42:28;;;;;;;;;;;10.40;99.90;;;;;;5075755;28;20392;-67
2023/01/06 02:47:59;;;;;;;;;;;10.30;99.90;;;;;;5071131;28;19919;-67
2023/01/06 02:50:36;;;;;;;;;;;10.40;99.90;;;;;;5086932;28;20378;-68
2023/01/06 02:53:21;;;;;;;;;;;10.30;99.90;;;;;;5071178;28;20374;-68
2023/01/06 02:55:48;;;;;;;;;;;10.30;99.90;;;;;;5070900;28;19994;-68
2023/01/06 02:58:21;;;;;;;;;;;10.30;99.90;;;;;;5071147;28;19916;-70
2023/01/06 03:00:50;;;;;;;;;;;10.30;99.90;;;;;;5071067;28;20321;-69
2023/01/06 03:03:19;;;;;;;;;;;10.40;99.90;;;;;;5071025;28;20365;-68
2023/01/06 03:05:46;;;;;;;;;;;10.40;99.90;;;;;;5070621;28;19959;-68
2023/01/06 03:08:14;;;;;;;;;;;10.40;99.90;;;;;;5070905;28;20484;-67
2023/01/06 03:10:40;;;;;;;;;;;10.40;99.90;;;;;;5070626;28;20335;-68
2023/01/06 03:13:09;;;;;;;;;;;10.40;99.90;;;;;;5070770;28;20282;-67
2023/01/06 03:15:34;;;;;;;;;;;10.40;99.90;;;;;;5070744;28;19932;-67
2023/01/06 03:18:00;;;;;;;;;;;10.40;99.90;;;;;;5070452;28;19908;-67
2023/01/06 03:20:26;;;;;;;;;;;10.40;99.90;;;;;;5070343;28;19909;-67
2023/01/06 03:22:51;;;;;;;;;;;10.40;99.90;;;;;;5070597;28;19912;-67
2023/01/06 03:25:17;;;;;;;;;;;10.40;99.90;;;;;;5070256;28;20436;-67
2023/01/06 03:27:42;;;;;;;;;;;10.40;99.90;;;;;;5070393;28;19920;-67
2023/01/06 03:30:09;;;;;;;;;;;10.30;99.90;;;;;;5070448;28;19940;-67
2023/01/06 03:38:33;;;;;;;;;;;10.40;99.90;;;;;;5071151;28;20370;-67
2023/01/06 03:41:01;;;;;;;;;;;10.40;99.90;;;;;;5070899;28;20275;-67
2023/01/06 03:43:34;;;;;;;;;;;10.40;99.90;;;;;;5070963;28;19909;-67
2023/01/06 03:46:19;;;;;;;;;;;10.30;99.90;;;;;;5071142;28;19909;-67
2023/01/06 03:51:31;;;;;;;;;;;10.40;99.90;;;;;;5091298;27;20297;-67
2023/01/06 03:56:45;;;;;;;;;;;10.50;99.90;;;;;;5071115;28;19913;-67
2023/01/06 03:59:13;;;;;;;;;;;10.50;99.90;;;;;;5071224;28;19913;-67
2023/01/06 04:01:42;;;;;;;;;;;10.40;99.90;;;;;;5070981;28;19909;-68
2023/01/06 04:04:08;;;;;;;;;;;10.40;99.90;;;;;;5071187;28;20370;-68
2023/01/06 04:06:33;;;;;;;;;;;10.40;99.90;;;;;;5070856;28;19944;-68
2023/01/06 04:08:58;;;;;;;;;;;10.40;99.90;;;;;;5069579;28;20016;-68
2023/01/06 04:14:09;;;;;;;;;;;10.40;99.90;;;;;;5070488;28;19995;-68
2023/01/06 04:16:35;;;;;;;;;;;10.40;99.90;;;;;;5070637;28;20016;-68
2023/01/06 04:19:00;;;;;;;;;;;10.50;99.90;;;;;;5070599;28;19909;-68
2023/01/06 04:21:26;;;;;;;;;;;10.50;99.90;;;;;;5070523;28;19943;-68
2023/01/06 04:23:51;;;;;;;;;;;10.50;99.90;;;;;;5070477;28;20385;-67
2023/01/06 04:26:17;;;;;;;;;;;10.50;99.90;;;;;;5070444;28;19958;-67
2023/01/06 04:28:42;;;;;;;;;;;10.50;99.90;;;;;;5070376;28;20362;-70
2023/01/06 04:31:08;;;;;;;;;;;10.50;99.90;;;;;;5070329;28;19909;-68
2023/01/06 04:33:34;;;;;;;;;;;10.50;99.90;;;;;;5070544;28;19909;-68
2023/01/06 04:36:00;;;;;;;;;;;10.50;99.90;;;;;;5070440;28;20289;-68
2023/01/06 04:38:25;;;;;;;;;;;10.50;99.90;;;;;;5070479;28;19909;-68
2023/01/06 04:40:51;;;;;;;;;;;10.50;99.90;;;;;;5070252;28;19909;-67
2023/01/06 04:43:16;;;;;;;;;;;10.50;99.90;;;;;;5070070;28;20333;-67
2023/01/06 04:45:42;;;;;;;;;;;10.50;99.90;;;;;;5070018;28;19916;-67
2023/01/06 04:48:08;;;;;;;;;;;10.50;99.90;;;;;;5085722;28;19909;-67
2023/01/06 04:50:34;;;;;;;;;;;10.50;99.90;;;;;;5070178;28;19908;-67
2023/01/06 04:52:59;;;;;;;;;;;10.50;99.90;;;;;;5069895;28;19913;-68
2023/01/06 04:55:25;;;;;;;;;;;10.50;99.90;;;;;;5080074;28;19959;-67
2023/01/06 04:57:51;;;;;;;;;;;10.60;99.90;;;;;;5090367;28;20378;-67
2023/01/06 05:00:16;;;;;;;;;;;10.60;99.90;;;;;;5090303;28;19957;-68
2023/01/06 05:02:42;;;;;;;;;;;10.60;99.90;;;;;;5090244;28;19931;-67
2023/01/06 05:05:08;;;;;;;;;;;10.50;99.90;;;;;;5071751;28;19916;-68
2023/01/06 05:07:33;;;;;;;;;;;10.50;99.90;;;;;;5079070;28;20395;-68
2023/01/06 05:09:58;;;;;;;;;;;10.50;99.90;;;;;;5076321;28;20372;-67
2023/01/06 05:12:24;;;;;;;;;;;10.60;99.90;;;;;;5076537;28;19914;-68
2023/01/06 05:14:49;;;;;;;;;;;10.60;99.90;;;;;;5058244;28;19916;-68
2023/01/06 05:17:15;;;;;;;;;;;10.60;99.90;;;;;;5076492;28;19915;-67
2023/01/06 05:19:41;;;;;;;;;;;10.70;99.90;;;;;;5076433;28;20378;-67
2023/01/06 05:22:07;;;;;;;;;;;10.70;99.90;;;;;;5076384;28;19916;-67
2023/01/06 05:24:33;;;;;;;;;;;10.70;99.90;;;;;;5076030;28;19908;-67
2023/01/06 05:26:58;;;;;;;;;;;10.70;99.90;;;;;;5076328;28;19908;-68
2023/01/06 05:29:24;;;;;;;;;;;10.70;99.90;;;;;;5076263;28;19971;-68
2023/01/06 05:31:49;;;;;;;;;;;10.70;99.90;;;;;;5076227;28;19912;-67
2023/01/06 05:34:15;;;;;;;;;;;10.60;99.90;;;;;;5075850;28;19909;-67
2023/01/06 05:36:40;;;;;;;;;;;10.70;99.90;;;;;;5076114;28;19952;-67
2023/01/06 05:39:05;;;;;;;;;;;10.70;99.90;;;;;;5075816;28;19916;-67
2023/01/06 05:41:31;;;;;;;;;;;10.60;99.90;;;;;;5075826;28;20370;-67
2023/01/06 05:43:56;;;;;;;;;;;10.70;99.90;;;;;;5075641;28;20298;-67
2023/01/06 05:46:22;;;;;;;;;;;10.70;99.90;;;;;;5075898;28;19948;-68
2023/01/06 05:48:47;;;;;;;;;;;10.60;99.90;;;;;;5075947;28;20381;-67
2023/01/06 05:51:14;;;;;;;;;;;10.60;99.90;;;;;;5075851;28;19999;-67
2023/01/06 05:53:40;;;;;;;;;;;10.60;99.90;;;;;;5075868;28;20293;-67
2023/01/06 05:56:07;;;;;;;;;;;10.60;99.90;;;;;;5054100;28;19925;-67
2023/01/06 05:58:33;;;;;;;;;;;10.70;99.90;;;;;;5055440;28;20325;-67
2023/01/06 06:00:59;;;;;;;;;;;10.70;99.90;;;;;;5055654;28;19909;-68
2023/01/06 06:03:24;;;;;;;;;;;10.70;99.90;;;;;;5055448;28;19916;-68
2023/01/06 06:05:50;;;;;;;;;;;10.70;99.90;;;;;;5055313;28;19909;-67
2023/01/06 06:08:15;;;;;;;;;;;10.70;99.90;;;;;;5055560;28;19916;-66
2023/01/06 06:10:41;;;;;;;;;;;10.70;99.90;;;;;;5055494;28;19909;-67
2023/01/06 06:13:06;;;;;;;;;;;10.80;99.90;;;;;;5055168;28;20288;-67
2023/01/06 06:15:32;;;;;;;;;;;10.70;99.90;;;;;;5055296;28;19913;-67
2023/01/06 06:17:57;;;;;;;;;;;10.80;99.90;;;;;;5054228;28;20000;-67
2023/01/06 06:20:23;;;;;;;;;;;10.80;99.90;;;;;;5055126;28;19909;-67
2023/01/06 06:22:48;;;;;;;;;;;10.80;99.90;;;;;;5055244;28;19978;-67
2023/01/06 06:25:14;;;;;;;;;;;10.80;99.90;;;;;;5054952;28;19908;-67
2023/01/06 06:27:39;;;;;;;;;;;10.80;99.90;;;;;;5055174;28;19995;-67
2023/01/06 06:30:05;;;;;;;;;;;10.80;99.90;;;;;;5055106;28;20019;-67
2023/01/06 06:32:31;;;;;;;;;;;10.70;99.90;;;;;;5054783;28;19948;-67
2023/01/06 06:34:57;;;;;;;;;;;10.70;99.90;;;;;;5054485;28;19964;-68
2023/01/06 06:37:22;;;;;;;;;;;10.70;99.90;;;;;;5054943;28;19916;-68
2023/01/06 06:39:48;;;;;;;;;;;10.80;99.90;;;;;;5054909;28;20341;-67
2023/01/06 06:42:13;;;;;;;;;;;10.80;99.90;;;;;;5054814;28;19991;-67
2023/01/06 06:44:38;;;;;;;;;;;10.80;99.90;;;;;;5054813;28;19952;-68
2023/01/06 06:47:04;;;;;;;;;;;10.80;99.90;;;;;;5054478;28;20003;-67
2023/01/06 06:49:29;;;;;;;;;;;10.80;99.90;;;;;;5054708;28;19920;-67
2023/01/06 06:51:55;;;;;;;;;;;10.80;99.90;;;;;;5054667;28;19916;-67
2023/01/06 06:54:20;;;;;;;;;;;10.80;99.90;;;;;;5055732;28;19995;-67
2023/01/06 06:56:46;;;;;;;;;;;10.80;99.90;;;;;;5074517;28;20416;-67
2023/01/06 06:59:11;;;;;;;;;;;10.80;99.90;;;;;;5074171;28;19909;-68
2023/01/06 07:01:37;;;;;;;;;;;10.80;99.90;;;;;;5074161;28;20047;-67
2023/01/06 07:04:02;;;;;;;;;;;10.80;99.90;;;;;;5074085;28;19916;-68
2023/01/06 07:06:28;;;;;;;;;;;10.80;99.90;;;;;;5074038;28;19909;-68
2023/01/06 07:08:53;;;;;;;;;;;10.80;99.90;;;;;;5070068;28;19913;-67
2023/01/06 07:11:19;;;;;;;;;;;10.80;99.90;;;;;;5064954;28;20040;-67
2023/01/06 07:13:45;;;;;;;;;;;10.70;99.90;;;;;;5071297;28;19920;-68
2023/01/06 07:16:10;;;;;;;;;;;10.80;99.90;;;;;;5072271;28;20350;-67
2023/01/06 07:18:36;;;;;;;;;;;10.80;99.90;;;;;;5073808;28;19948;-67
2023/01/06 07:21:02;;;;;;;;;;;10.80;99.90;;;;;;5072411;28;19912;-67
2023/01/06 07:23:29;;;;;;;;;;;10.80;99.90;;;;;;5073683;28;19908;-67
2023/01/06 07:25:56;;;;;;;;;;;10.70;99.90;;;;;;5073992;28;19908;-67
2023/01/06 07:28:22;;;;;;;;;;;10.70;99.90;;;;;;5074037;28;20390;-67
2023/01/06 07:30:48;;;;;;;;;;;10.90;99.90;;;;;;5072217;28;19936;-67
2023/01/06 07:33:14;;;;;;;;;;;10.80;99.90;;;;;;5058181;28;19912;-67
2023/01/06 07:35:39;;;;;;;;;;;10.70;99.90;;;;;;5053475;28;19943;-67
2023/01/06 07:38:05;;;;;;;;;;;10.70;99.90;;;;;;5054971;28;19955;-68
2023/01/06 07:40:31;;;;;;;;;;;10.70;99.90;;;;;;5053703;28;20354;-67
2023/01/06 07:42:56;;;;;;;;;;;10.70;99.90;;;;;;5068020;28;19913;-67
2023/01/06 07:45:22;;;;;;;;;;;10.70;99.90;;;;;;5069780;28;19913;-67
2023/01/06 07:47:48;;;;;;;;;;;10.70;99.90;;;;;;5055159;28;19961;-68
2023/01/06 07:50:13;;;;;;;;;;;10.70;99.90;;;;;;5055246;28;19948;-67
2023/01/06 07:52:39;;;;;;;;;;;10.70;99.90;;;;;;5073317;28;19909;-68
2023/01/06 07:55:04;;;;;;;;;;;10.70;99.90;;;;;;5073787;28;19974;-67
2023/01/06 07:57:30;;;;;;;;;;;10.70;99.90;;;;;;5068257;28;19920;-67
2023/01/06 07:59:55;;;;;;;;;;;10.70;99.90;;;;;;5053278;28;19931;-67
2023/01/06 08:02:21;;;;;;;;;;;10.70;99.90;;;;;;5058339;28;19913;-67
2023/01/06 08:04:47;;;;;;;;;;;10.70;99.90;;;;;;5072775;28;19908;-67
2023/01/06 08:07:13;;;;;;;;;;;10.70;99.90;;;;;;5072986;28;20011;-67
2023/01/06 08:09:38;;;;;;;;;;;10.70;99.90;;;;;;5071873;28;19912;-67
2023/01/06 08:12:04;;;;;;;;;;;10.70;99.90;;;;;;5073149;28;19915;-67
2023/01/06 08:14:29;;;;;;;;;;;10.70;99.90;;;;;;5073300;28;19983;-67
2023/01/06 08:16:55;;;;;;;;;;;10.80;99.90;;;;;;5073432;28;20377;-68
2023/01/06 08:19:20;;;;;;;;;;;10.70;99.90;;;;;;5073086;28;20001;-68
2023/01/06 08:21:45;;;;;;;;;;;10.70;99.90;;;;;;5072275;28;19916;-69
2023/01/06 08:24:11;;;;;;;;;;;10.80;99.90;;;;;;5072767;28;20277;-68
2023/01/06 08:26:36;;;;;;;;;;;10.80;99.90;;;;;;5071186;28;19913;-68
2023/01/06 08:29:02;;;;;;;;;;;10.80;99.90;;;;;;5072803;28;20431;-68
2023/01/06 08:31:27;;;;;;;;;;;10.80;99.90;;;;;;5069526;28;20031;-68
2023/01/06 08:33:53;;;;;;;;;;;10.70;99.90;;;;;;5072487;28;20357;-68
2023/01/06 08:36:19;;;;;;;;;;;10.80;99.90;;;;;;5070997;28;19924;-68
2023/01/06 08:38:46;;;;;;;;;;;10.80;99.90;;;;;;5072667;28;20007;-69
2023/01/06 08:41:11;;;;;;;;;;;10.80;99.90;;;;;;5070632;28;20379;-68
2023/01/06 08:43:38;;;;;;;;;;;10.80;99.90;;;;;;5068660;28;19912;-68
2023/01/06 08:46:05;;;;;;;;;;;10.80;99.90;;;;;;5068467;28;19913;-68
2023/01/06 08:48:30;;;;;;;;;;;10.80;99.90;;;;;;5066438;28;19924;-68
2023/01/06 08:51:00;;;;;;;;;;;10.70;99.90;;;;;;5075976;28;20289;-68
2023/01/06 08:53:26;;;;;;;;;;;10.60;99.90;;;;;;5076568;28;19997;-68
2023/01/06 08:55:51;;;;;;;;;;;10.60;99.90;;;;;;5070194;28;19980;-68
2023/01/06 08:58:17;;;;;;;;;;;10.60;99.90;;;;;;5056650;28;19916;-69
2023/01/06 09:00:42;;;;;;;;;;;10.60;99.90;;;;;;5072426;28;19950;-68
2023/01/06 09:03:08;;;;;;;;;;;10.70;99.90;;;;;;5083314;28;20385;-69
2023/01/06 09:05:33;;;;;;;;;;;10.70;99.90;;;;;;5089254;28;19915;-68
2023/01/06 09:07:59;;;;;;;;;;;10.70;99.90;;;;;;5058312;28;19908;-68
2023/01/06 09:10:24;;;;;;;;;;;10.80;99.90;;;;;;5074862;28;19927;-68
2023/01/06 09:12:50;;;;;;;;;;;10.80;99.90;;;;;;5076214;28;20049;-69
2023/01/06 09:15:15;;;;;;;;;;;10.90;99.90;;;;;;5065804;28;20011;-69
2023/01/06 09:17:41;;;;;;;;;;;10.90;99.90;;;;;;5069311;28;19966;-66
2023/01/06 09:20:07;;;;;;;;;;;10.90;99.90;;;;;;5075975;28;20337;-66
2023/01/06 09:22:32;;;;;;;;;;;11.00;99.90;;;;;;5075934;28;19958;-66
2023/01/06 09:24:58;;;;;;;;;;;11.00;99.90;;;;;;5075980;28;19995;-66
2023/01/06 09:27:23;;;;;;;;;;;11.00;99.90;;;;;;5072911;28;19908;-67
2023/01/06 09:29:49;;;;;;;;;;;11.10;99.90;;;;;;5075790;28;19918;-67
2023/01/06 09:32:14;;;;;;;;;;;11.10;99.90;;;;;;5076042;28;19908;-67
2023/01/06 09:34:40;;;;;;;;;;;11.10;99.90;;;;;;5072939;28;19913;-67
2023/01/06 09:37:05;;;;;;;;;;;11.10;99.90;;;;;;5075882;28;19927;-67
2023/01/06 09:39:31;;;;;;;;;;;11.10;99.90;;;;;;5074541;28;19908;-67
2023/01/06 09:42:16;;;;;;;;;;;11.10;99.90;;;;;;5074401;28;20447;-66
2023/01/06 09:44:51;;;;;;;;;;;11.10;99.90;;;;;;5073815;28;19962;-67
2023/01/06 09:47:19;;;;;;;;;;;11.10;99.90;;;;;;5037660;28;20334;-67
2023/01/06 09:49:48;;;;;;;;;;;11.10;99.90;;;;;;5055250;28;20298;-67
2023/01/06 09:52:17;;;;;;;;;;;11.10;99.90;;;;;;5055300;28;20278;-68
2023/01/06 09:54:49;;;;;;;;;;;11.10;99.90;;;;;;5038867;28;19925;-67
2023/01/06 09:57:16;;;;;;;;;;;11.10;99.90;;;;;;5074074;28;20007;-67
2023/01/06 09:59:47;;;;;;;;;;;11.10;99.90;;;;;;5075404;28;19908;-67
2023/01/06 10:02:15;;;;;;;;;;;11.10;99.90;;;;;;5075161;28;20002;-67
2023/01/06 10:04:41;;;;;;;;;;;11.10;99.90;;;;;;5073953;28;20403;-67
2023/01/06 10:07:27;;;;;;;;;;;11.00;99.90;;;;;;5066065;28;19912;-67
2023/01/06 10:09:59;;;;;;;;;;;11.00;99.90;;;;;;5074621;28;19919;-67
2023/01/06 10:12:31;;;;;;;;;;;11.00;99.90;;;;;;5073707;28;19909;-67
2023/01/06 10:15:16;;;;;;;;;;;10.90;99.90;;;;;;5075090;28;20304;-67
2023/01/06 10:17:52;;;;;;;;;;;10.90;99.90;;;;;;5074049;28;20370;-67
2023/01/06 10:20:37;;;;;;;;;;;11.00;99.90;;;;;;5074663;28;19913;-67
2023/01/06 10:25:53;;;;;;;;;;;11.10;99.90;;;;;;5066487;28;20282;-67
2023/01/06 10:30:59;;;;;;;;;;;11.10;99.90;;;;;;5050511;28;19917;-67
2023/01/06 10:33:25;;;;;;;;;;;11.20;99.90;;;;;;5051004;28;20455;-69
2023/01/06 10:35:53;;;;;;;;;;;11.10;99.90;;;;;;5050806;28;19920;-67
2023/01/06 10:38:21;;;;;;;;;;;11.10;99.90;;;;;;5047744;28;19913;-67
2023/01/06 10:40:47;;;;;;;;;;;11.10;99.90;;;;;;5029916;28;19936;-67
2023/01/06 10:43:12;;;;;;;;;;;11.10;99.90;;;;;;5029319;28;19914;-67
2023/01/06 10:45:42;;;;;;;;;;;11.10;99.90;;;;;;5029379;28;19964;-67
2023/01/06 10:48:12;;;;;;;;;;;11.10;99.90;;;;;;5030556;28;20081;-67
2023/01/06 10:50:38;;;;;;;;;;;11.10;99.90;;;;;;5029239;28;19940;-67
2023/01/06 10:53:03;;;;;;;;;;;11.20;99.90;;;;;;5029597;28;19920;-66
2023/01/06 10:55:38;;;;;;;;;;;11.20;99.90;;;;;;5030810;28;19932;-67
2023/01/06 10:58:23;;;;;;;;;;;11.20;99.90;;;;;;5028647;28;19922;-67
2023/01/06 11:00:53;;;;;;;;;;;11.20;99.90;;;;;;5023569;28;19918;-67
2023/01/06 11:03:19;;;;;;;;;;;11.20;99.90;;;;;;5030563;28;19957;-67
2023/01/06 11:05:45;;;;;;;;;;;11.20;99.90;;;;;;5043847;28;20016;-67
2023/01/06 11:08:13;;;;;;;;;;;11.20;99.90;;;;;;5028365;28;20000;-67
2023/01/06 11:10:42;;;;;;;;;;;11.30;99.90;;;;;;5029171;28;19913;-66
2023/01/06 11:13:19;;;;;;;;;;;11.30;99.90;;;;;;5029041;28;20016;-67
2023/01/06 11:15:45;;;;;;;;;;;11.30;99.90;;;;;;5029485;28;20425;-67
2023/01/06 11:18:20;;;;;;;;;;;11.30;99.90;;;;;;5030111;28;19909;-67
2023/01/06 11:20:59;;;;;;;;;;;11.40;99.90;;;;;;5028994;28;19917;-67
2023/01/06 11:23:25;;;;;;;;;;;11.50;99.90;;;;;;5010514;28;20008;-66
2023/01/06 11:25:58;;;;;;;;;;;11.50;99.90;;;;;;5020052;28;19957;-67
2023/01/06 11:28:24;;;;;;;;;;;11.50;99.90;;;;;;5029012;28;20398;-67
2023/01/06 11:30:52;;;;;;;;;;;11.50;99.90;;;;;;5047416;28;19918;-67
2023/01/06 11:33:20;;;;;;;;;;;11.70;99.90;;;;;;5046697;28;19921;-67
2023/01/06 11:35:47;;;;;;;;;;;11.80;99.90;;;;;;5049714;28;19916;-67
2023/01/06 11:38:14;;;;;;;;;;;11.70;99.90;;;;;;5048007;28;19913;-67
2023/01/06 11:40:41;;;;;;;;;;;11.70;99.90;;;;;;5044157;28;20302;-67
2023/01/06 11:43:10;;;;;;;;;;;11.60;99.90;;;;;;5035988;28;20054;-66
2023/01/06 11:45:38;;;;;;;;;;;11.60;99.90;;;;;;5036280;28;20011;-67
2023/01/06 11:48:12;;;;;;;;;;;11.60;99.90;;;;;;5036293;28;20008;-68
2023/01/06 11:50:38;;;;;;;;;;;11.70;99.90;;;;;;5034966;28;19925;-68
2023/01/06 11:53:14;;;;;;;;;;;11.70;99.90;;;;;;5034790;28;19917;-67
2023/01/06 11:55:39;;;;;;;;;;;11.80;99.90;;;;;;5035901;28;20358;-67
2023/01/06 11:58:10;;;;;;;;;;;11.80;99.90;;;;;;5035275;28;19920;-67
2023/01/06 12:00:46;;;;;;;;;;;11.80;99.90;;;;;;5034170;28;19971;-67
2023/01/06 12:03:33;;;;;;;;;;;11.90;99.90;;;;;;5034763;28;19979;-67
2023/01/06 12:06:19;;;;;;;;;;;11.90;99.90;;;;;;5046875;28;20371;-68
2023/01/06 12:08:48;;;;;;;;;;;12.20;99.90;;;;;;5035179;28;19915;-67
2023/01/06 12:11:18;;;;;;;;;;;12.20;99.90;;;;;;5051810;28;20333;-68
2023/01/06 12:13:43;;;;;;;;;;;12.20;99.90;;;;;;5055570;28;19909;-68
2023/01/06 12:16:13;;;;;;;;;;;12.20;99.90;;;;;;5055478;28;19916;-67
2023/01/06 12:18:40;;;;;;;;;;;12.10;99.90;;;;;;5055867;28;19966;-68
2023/01/06 12:21:07;;;;;;;;;;;12.00;99.90;;;;;;5049278;28;19916;-68
2023/01/06 12:23:36;;;;;;;;;;;12.10;99.90;;;;;;5035531;28;19967;-69
2023/01/06 12:26:03;;;;;;;;;;;12.10;99.90;;;;;;5035444;28;20286;-68
2023/01/06 12:28:32;;;;;;;;;;;12.00;99.90;;;;;;5033231;28;20456;-68
2023/01/06 12:31:01;;;;;;;;;;;11.90;99.90;;;;;;5032222;28;19925;-68
2023/01/06 12:33:33;;;;;;;;;;;11.90;99.90;;;;;;5032437;28;19913;-68
2023/01/06 12:36:01;;;;;;;;;;;11.90;99.90;;;;;;5035316;28;19935;-68
2023/01/06 12:38:40;;;;;;;;;;;11.90;99.90;;;;;;5035428;28;19909;-68
2023/01/06 12:41:10;;;;;;;;;;;11.90;99.90;;;;;;5039282;28;19920;-68
2023/01/06 12:43:37;;;;;;;;;;;11.90;99.90;;;;;;5035645;28;19909;-67
2023/01/06 12:46:08;;;;;;;;;;;12.00;99.90;;;;;;5034862;28;19999;-68
2023/01/06 12:48:38;;;;;;;;;;;12.10;99.90;;;;;;5034654;28;19909;-68
2023/01/06 12:51:22;;;;;;;;;;;12.10;99.90;;;;;;5015250;28;20386;-67
2023/01/06 12:53:51;;;;;;;;;;;12.10;99.90;;;;;;5030303;28;20338;-68
2023/01/06 12:56:36;;;;;;;;;;;12.10;99.90;;;;;;5034158;28;19955;-68
2023/01/06 12:59:11;;;;;;;;;;;12.20;99.90;;;;;;5034744;28;19909;-67
2023/01/06 13:01:41;;;;;;;;;;;12.30;99.90;;;;;;5034858;28;19909;-67
2023/01/06 13:04:21;;;;;;;;;;;12.30;99.90;;;;;;5034781;28;19999;-68
2023/01/06 13:07:07;;;;;;;;;;;12.20;99.90;;;;;;5034945;28;20275;-67
2023/01/06 13:09:39;;;;;;;;;;;12.20;99.90;;;;;;5034659;28;19936;-68
2023/01/06 13:12:16;;;;;;;;;;;12.10;99.90;;;;;;5034861;28;20278;-68
2023/01/06 13:14:54;;;;;;;;;;;12.10;99.90;;;;;;5034808;28;20381;-68
2023/01/06 13:17:27;;;;;;;;;;;12.10;99.90;;;;;;5034481;28;19916;-68
2023/01/06 13:19:54;;;;;;;;;;;12.00;99.90;;;;;;5034820;28;20369;-67
2023/01/06 13:22:39;;;;;;;;;;;11.90;99.90;;;;;;5034643;28;19916;-68
2023/01/06 13:25:14;;;;;;;;;;;11.80;99.90;;;;;;5034414;28;19916;-68
2023/01/06 13:28:00;;;;;;;;;;;11.80;99.90;;;;;;5034350;28;19959;-67
2023/01/06 13:30:36;;;;;;;;;;;11.80;99.90;;;;;;5034127;28;19921;-68
2023/01/06 13:33:22;;;;;;;;;;;11.80;99.90;;;;;;5034623;28;19909;-68
2023/01/06 13:36:07;;;;;;;;;;;11.90;99.90;;;;;;5034182;28;19956;-68
2023/01/06 13:38:41;;;;;;;;;;;11.90;99.90;;;;;;5034049;28;19909;-68
2023/01/06 13:41:11;;;;;;;;;;;12.00;99.90;;;;;;5034100;28;19909;-68
2023/01/06 13:43:37;;;;;;;;;;;12.10;99.90;;;;;;5034378;28;19959;-67
2023/01/06 13:46:04;;;;;;;;;;;12.10;99.90;;;;;;5034096;28;19909;-67
2023/01/06 13:48:32;;;;;;;;;;;12.20;99.90;;;;;;5034071;28;19917;-67
2023/01/06 13:51:01;;;;;;;;;;;12.20;99.90;;;;;;5033070;28;20329;-67
2023/01/06 13:53:26;;;;;;;;;;;12.20;99.90;;;;;;5034262;28;19909;-67
2023/01/06 13:56:12;;;;;;;;;;;12.30;99.90;;;;;;5016251;28;20371;-68
2023/01/06 13:58:38;;;;;;;;;;;12.30;99.90;;;;;;5033794;28;19909;-67
2023/01/06 14:01:10;;;;;;;;;;;12.40;99.90;;;;;;5033876;28;19924;-67
2023/01/06 14:03:37;;;;;;;;;;;12.50;99.90;;;;;;5033694;28;19916;-67
2023/01/06 14:06:03;;;;;;;;;;;12.50;99.90;;;;;;5033996;28;19909;-68
2023/01/06 14:08:35;;;;;;;;;;;12.50;99.90;;;;;;5033746;28;19909;-68
2023/01/06 14:11:02;;;;;;;;;;;12.40;99.90;;;;;;5033642;28;19920;-67
2023/01/06 14:13:47;;;;;;;;;;;12.40;99.90;;;;;;5033984;28;19909;-68
2023/01/06 14:16:13;;;;;;;;;;;12.40;99.90;;;;;;5032708;28;19916;-67
2023/01/06 14:18:42;;;;;;;;;;;12.40;99.90;;;;;;5033892;28;19909;-67
2023/01/06 14:23:49;;;;;;;;;;;12.30;99.90;;;;;;5071030;28;19919;-67
2023/01/06 14:26:14;;;;;;;;;;;12.20;99.90;;;;;;5070802;28;19913;-67
2023/01/06 14:28:39;;;;;;;;;;;12.20;99.90;;;;;;5071102;28;19916;-67
2023/01/06 14:31:37;;;;;;;;;;;12.10;99.90;;;;;;5070807;28;19908;-67
2023/01/06 14:34:03;;;;;;;;;;;12.00;99.90;;;;;;5070822;28;19908;-67
2023/01/06 14:36:30;;;;;;;;;;;11.90;99.90;;;;;;5070945;28;20282;-67
2023/01/06 14:38:59;;;;;;;;;;;11.80;99.90;;;;;;5070894;28;19954;-67
2023/01/06 14:41:29;;;;;;;;;;;11.70;99.90;;;;;;5070783;28;19909;-67
2023/01/06 14:44:01;;;;;;;;;;;11.70;99.90;;;;;;5070557;28;19909;-67
2023/01/06 14:46:29;;;;;;;;;;;11.60;99.90;;;;;;5066430;28;20259;-67
2023/01/06 14:49:00;;;;;;;;;;;11.50;99.90;;;;;;5070736;28;19947;-67
2023/01/06 14:51:25;;;;;;;;;;;11.50;99.90;;;;;;5070621;28;19923;-67
2023/01/06 14:53:55;;;;;;;;;;;11.50;99.90;;;;;;5070512;28;19913;-68